Terminal Aerodrome Forecast
Issued by NWS Blacksburg, VA

Home | Current Version | Previous Version | Text Only | Print | Product List | Glossary On
Versions: 1 2 3 4 5 6 7 8 9 10 11 12 13 14 15 16 17 18 19 20 21 22 23 24
000
FTUS41 KRNK 231346 AAA
TAFDAN
TAF AMD
KDAN 231346Z 2314/2412 05007KT 1 1/2SM BR OVC002
     FM231600 VRB03KT 4SM BR OVC012
     FM232200 19004KT P6SM BKN045
     FM240300 21004KT 4SM BR SCT004 SCT040=

USA.gov is the U.S. government's official web portal to all federal, state and local government web resources and services.